Дата Пункты Температура Давл., мм. Влажн., % Ветер Погодные явления
Воздуха Воды Направл. Скорость
18.08.15 02:00 Одесса 23.0 24.0 755 66 Пн-С 7 03 часа
17.08.15 08:00 Одесса 23.0 25.0 755 63 З 1 21 час
17.08.15 05:00 Одесса 27.0 25.0 754 53 Пд 3 18 часов
17.08.15 02:00 Одесса 28.0 25.0 755 47 Пд-С 2 15 часов
17.08.15 11:00 Одесса 27.0 25.0 755 52 С 1 12 часов
17.08.15 08:00 Одесса 24.0 25.0 755 60 Пн 2 09 часов
17.08.15 05:00 Одесса 21.0 25.0 755 71 Пн 2 06 часов
17.08.15 02:00 Одесса 22.0 25.0 755 70 Пн-С 2 03 часа
16.08.15 08:00 Одесса 24.0 25.0 754 64 Пн-З 1 21 час
16.08.15 05:00 Одесса 28.0 25.0 753 58 Пд 2 18 часов
16.08.15 02:00 Одесса 32.0 25.0 753 30 Пн 2 15 часов
16.08.15 11:00 Одесса 30.0 25.0 753 38 Пн 2 12 часов
16.08.15 08:00 Одесса 25.0 25.0 753 66 Пн-З 1 09 часов
16.08.15 05:00 Одесса 20.0 25.0 753 88 Пн-З 1 06 часов
16.08.15 02:00 Одесса 21.0 25.0 753 88 З 1 03 часа
15.08.15 08:00 Одесса 24.0 25.0 753 77 Пн-З 1 21 час
15.08.15 05:00 Одесса 27.0 25.0 753 66 Пн 2 18 часов
15.08.15 02:00 Одесса 30.0 25.0 753 54 Пн-З 2 15 часов
15.08.15 11:00 Одесса 29.0 25.0 753 58 Пн-З 2 12 часов
15.08.15 08:00 Одесса 25.0 25.0 754 66 Пн 1 09 часов
Количество строк
351 352 353 354 355 356 357 358 359 360
Page 358 of 481